FMNM

Amborovy Airport

Madagascar
METAR FMNM 221800Z 24008KT 9999 FEW020CB SCT040 27/23 Q1010 NOSIG
Observed Flight Rules
Apr-22 @ 18:00 UTC (16 minutes ago) Visual Flight Rules
Wind Visibility Clouds
240° at 8 knots 10,000+ meters
  • Few at 2,000' AGL
  • Scattered at 4,000' AGL
Temperatures Readings
Current 27°C / 81°F
Dewpoint 23°C / 73°F
Humidity 79%
Altimeter 29.82" Hg
Pressure 1010 hPa
Elevation 18
METAR FMNM 221800Z 24008KT 9999 FEW020CB SCT040 27/23 Q1010 NOSIG
Observed Flight Rules
Apr-22 @ 18:00 UTC
(16 minutes ago)
VFR
Wind Visibility
240° at 8 knots 10,000+ meters
Clouds
  • Few at 2,000' AGL
  • Scattered at 4,000' AGL
Temperature Dewpoint
27°C / 81°F 23°C / 73°F
Humidity Altimeter Pressure
79% 29.82" Hg 1010 hPa